Time;durP1;ratioP1;P1;durP2;ratioP2;P2;SDS_P1;SDS_P2;PMS_P1;PMS_P2;Temp;Humidity;BMP_temperature;BMP_pressure;BME280_temperature;BME280_humidity;BME280_pressure;Samples;Min_cycle;Max_cycle;Signal;HPM_P1;HPM_P2
2022/08/19 00:01:13;;;;;;;12.90;10.18;;;;;;;29.82;42.07;101437.88;5049711;28;20058;-78
2022/08/19 00:03:39;;;;;;;14.18;11.10;;;;;;;29.64;42.65;101430.31;5061430;28;20025;-78
2022/08/19 00:06:04;;;;;;;13.80;10.50;;;;;;;29.75;42.06;101426.75;5064655;28;20029;-78
2022/08/19 00:08:30;;;;;;;12.95;9.98;;;;;;;29.64;42.71;101424.09;5051238;28;20048;-78
2022/08/19 00:10:55;;;;;;;17.10;11.45;;;;;;;29.60;42.38;101424.31;5049181;28;20045;-78
2022/08/19 00:13:21;;;;;;;13.88;10.75;;;;;;;29.51;42.74;101425.09;5051044;28;20024;-78
2022/08/19 00:15:46;;;;;;;16.15;10.20;;;;;;;29.80;42.26;101424.53;5050792;28;20038;-77
2022/08/19 00:18:11;;;;;;;15.07;10.68;;;;;;;29.76;42.34;101428.47;5047289;28;20029;-78
2022/08/19 00:20:40;;;;;;;15.38;10.60;;;;;;;29.83;42.06;101432.34;5039106;28;20123;-78
2022/08/19 00:23:06;;;;;;;12.45;10.50;;;;;;;29.74;42.29;101435.81;5051045;28;20036;-78
2022/08/19 00:25:32;;;;;;;14.15;11.40;;;;;;;30.03;41.85;101440.66;5053426;28;20029;-78
2022/08/19 00:27:58;;;;;;;14.82;10.75;;;;;;;29.97;41.81;101430.41;5035107;28;20028;-78
2022/08/19 00:30:24;;;;;;;16.45;11.32;;;;;;;29.78;42.03;101431.88;5044500;28;20028;-78
2022/08/19 00:32:50;;;;;;;16.08;10.77;;;;;;;29.95;41.87;101422.41;5070417;28;20090;-78
2022/08/19 00:35:17;;;;;;;19.15;11.82;;;;;;;29.73;42.33;101423.31;5039032;28;20039;-78
2022/08/19 00:37:43;;;;;;;15.77;10.85;;;;;;;29.72;42.24;101425.16;5064499;28;20027;-78
2022/08/19 00:40:10;;;;;;;15.40;11.80;;;;;;;30.13;41.47;101422.75;5046832;28;20032;-78
2022/08/19 00:42:35;;;;;;;15.98;11.90;;;;;;;29.68;42.79;101426.38;5057472;28;20439;-76
2022/08/19 00:45:01;;;;;;;14.50;11.85;;;;;;;29.69;42.35;101416.47;5060621;28;20025;-78
2022/08/19 00:47:26;;;;;;;16.80;11.75;;;;;;;29.60;42.59;101416.22;5047217;28;20032;-78
2022/08/19 00:49:56;;;;;;;16.17;10.75;;;;;;;29.60;42.45;101418.94;5063286;28;20028;-78
2022/08/19 00:52:29;;;;;;;16.20;11.57;;;;;;;29.68;42.52;101425.53;5065330;28;20032;-78
2022/08/19 00:54:55;;;;;;;16.65;10.90;;;;;;;29.64;42.74;101418.69;5040317;28;20029;-78
2022/08/19 00:57:26;;;;;;;14.68;10.65;;;;;;;30.05;41.41;101422.53;5041453;28;20393;-77
2022/08/19 00:59:55;;;;;;;13.45;10.57;;;;;;;30.01;41.81;101424.59;5047279;28;20033;-77
2022/08/19 01:02:21;;;;;;;11.48;10.23;;;;;;;29.83;42.09;101423.41;5071249;28;20097;-78
2022/08/19 01:04:46;;;;;;;13.45;10.52;;;;;;;29.84;42.24;101436.78;5045324;28;20563;-78
2022/08/19 01:07:12;;;;;;;11.45;9.13;;;;;;;30.36;40.93;101426.16;5056649;28;20037;-77
2022/08/19 01:09:37;;;;;;;13.27;10.13;;;;;;;30.07;41.64;101434.00;5055656;28;20036;-78
2022/08/19 01:12:03;;;;;;;14.13;10.13;;;;;;;29.71;42.27;101441.44;5053312;28;20102;-77
2022/08/19 01:14:30;;;;;;;17.67;9.90;;;;;;;29.50;42.69;101435.97;5036669;28;20424;-78
2022/08/19 01:16:57;;;;;;;12.55;9.43;;;;;;;29.85;41.99;101438.50;5045341;28;20043;-78
2022/08/19 01:19:35;;;;;;;11.60;9.40;;;;;;;30.19;41.05;101432.97;5035949;28;20025;-77
2022/08/19 01:22:26;;;;;;;12.90;9.88;;;;;;;29.51;43.17;101435.84;5039454;28;20029;-78
2022/08/19 01:24:52;;;;;;;13.45;9.23;;;;;;;29.66;42.27;101431.03;5038528;28;20032;-77
2022/08/19 01:27:18;;;;;;;13.70;8.50;;;;;;;29.61;42.57;101426.03;5036345;28;20041;-78
2022/08/19 01:29:47;;;;;;;11.77;8.65;;;;;;;29.25;43.75;101429.84;5050897;28;20032;-78
2022/08/19 01:32:16;;;;;;;11.45;8.77;;;;;;;29.24;43.56;101430.81;5036984;28;20032;-78
2022/08/19 01:34:46;;;;;;;11.15;8.77;;;;;;;29.27;43.44;101428.75;5050867;28;20082;-77
2022/08/19 01:37:14;;;;;;;15.73;8.75;;;;;;;29.23;43.25;101432.66;5052422;28;20037;-77
2022/08/19 01:39:40;;;;;;;9.50;7.85;;;;;;;29.41;42.72;101430.34;5048347;28;20089;-78
2022/08/19 01:42:08;;;;;;;9.45;8.27;;;;;;;29.30;42.89;101433.03;5054306;28;20052;-77
2022/08/19 01:44:36;;;;;;;15.68;8.20;;;;;;;29.41;43.04;101433.03;5089116;28;20032;-77
2022/08/19 01:47:01;;;;;;;11.00;8.57;;;;;;;29.43;43.04;101435.63;5093860;28;20028;-77
2022/08/19 01:49:27;;;;;;;12.65;8.13;;;;;;;29.36;42.84;101443.34;5062652;28;20123;-78
2022/08/19 01:51:53;;;;;;;13.07;8.73;;;;;;;29.17;43.20;101446.59;5070793;28;20024;-77
2022/08/19 01:54:21;;;;;;;11.55;8.18;;;;;;;29.33;43.01;101442.72;5067857;28;20036;-77
2022/08/19 01:56:46;;;;;;;11.07;8.00;;;;;;;29.37;42.86;101438.78;5059772;28;20226;-78
2022/08/19 01:59:15;;;;;;;13.40;8.70;;;;;;;29.24;43.23;101445.16;5055072;28;20099;-78
2022/08/19 02:01:41;;;;;;;10.48;8.23;;;;;;;29.39;42.63;101434.16;5057703;28;20033;-78
2022/08/19 02:04:06;;;;;;;11.02;8.73;;;;;;;29.27;42.97;101428.75;5063624;28;20035;-77
2022/08/19 02:06:32;;;;;;;12.07;8.60;;;;;;;29.36;42.73;101432.56;5057007;28;20086;-77
2022/08/19 02:08:58;;;;;;;13.95;8.45;;;;;;;29.41;42.44;101434.88;5089204;28;20034;-78
2022/08/19 02:11:27;;;;;;;12.02;7.95;;;;;;;29.47;42.59;101433.53;5075008;28;20024;-78
2022/08/19 02:13:54;;;;;;;10.75;8.27;;;;;;;29.20;43.04;101432.91;5056090;28;20092;-77
2022/08/19 02:16:20;;;;;;;15.20;8.15;;;;;;;29.22;42.77;101432.78;5070413;28;20024;-77
2022/08/19 02:18:48;;;;;;;11.48;7.63;;;;;;;29.39;42.51;101447.63;5070139;28;20024;-77
2022/08/19 02:21:17;;;;;;;10.73;7.93;;;;;;;29.27;42.89;101434.16;5056794;28;20020;-77
2022/08/19 02:23:43;;;;;;;12.48;8.60;;;;;;;29.53;42.43;101433.88;5062740;28;20128;-78
2022/08/19 02:26:09;;;;;;;14.65;8.77;;;;;;;29.24;42.85;101439.78;5078971;28;20443;-78
2022/08/19 02:28:34;;;;;;;13.05;10.75;;;;;;;29.44;42.12;101422.03;5055965;28;20447;-78
2022/08/19 02:31:00;;;;;;;13.73;10.80;;;;;;;29.27;42.79;101423.38;5065651;28;20103;-78
2022/08/19 02:33:27;;;;;;;13.93;10.57;;;;;;;29.31;42.96;101429.38;5058254;28;20472;-77
2022/08/19 02:35:52;;;;;;;15.57;11.02;;;;;;;29.31;43.04;101429.38;5079688;28;20492;-77
2022/08/19 02:38:26;;;;;;;15.32;11.52;;;;;;;29.14;43.32;101433.41;5079073;28;20035;-77
2022/08/19 02:41:06;;;;;;;17.67;11.07;;;;;;;29.47;42.68;101425.44;5059299;28;20128;-78
2022/08/19 02:43:36;;;;;;;15.43;10.45;;;;;;;29.53;42.01;101420.41;5080722;28;20032;-78
2022/08/19 02:46:24;;;;;;;15.20;10.90;;;;;;;29.08;42.99;101412.34;5065687;28;20028;-78
2022/08/19 02:48:52;;;;;;;15.73;11.18;;;;;;;29.00;43.14;101415.63;5059688;28;20036;-77
2022/08/19 02:51:23;;;;;;;19.45;12.57;;;;;;;29.01;43.08;101411.97;5056195;28;20031;-78
2022/08/19 02:53:48;;;;;;;17.13;12.65;;;;;;;29.12;42.72;101413.81;5069260;28;20376;-77
2022/08/19 02:56:14;;;;;;;18.15;13.38;;;;;;;29.65;41.87;101404.22;5054367;28;20043;-77
2022/08/19 02:58:40;;;;;;;16.98;12.77;;;;;;;29.47;42.37;101402.09;5059422;28;20020;-78
2022/08/19 03:01:06;;;;;;;25.17;15.15;;;;;;;29.09;43.46;101406.00;5073528;28;20089;-77
2022/08/19 03:03:32;;;;;;;19.40;14.68;;;;;;;28.97;43.54;101404.28;5076092;28;20503;-77
2022/08/19 03:06:13;;;;;;;23.25;15.27;;;;;;;29.05;43.43;101404.53;5064981;28;20020;-78
2022/08/19 03:08:41;;;;;;;24.60;15.90;;;;;;;29.09;43.21;101408.69;5073548;28;20024;-77
2022/08/19 03:11:11;;;;;;;29.75;19.83;;;;;;;28.93;43.73;101403.66;5060753;28;20027;-77
2022/08/19 03:13:37;;;;;;;35.92;21.02;;;;;;;29.07;43.41;101405.25;5055276;28;20055;-77
2022/08/19 03:16:04;;;;;;;37.38;22.70;;;;;;;28.90;43.95;101404.75;5088552;28;20051;-78
2022/08/19 03:18:30;;;;;;;33.33;22.08;;;;;;;29.53;42.42;101400.72;5078594;28;20045;-78
2022/08/19 03:20:55;;;;;;;41.03;24.52;;;;;;;29.23;43.22;101403.03;5064909;28;20480;-78
2022/08/19 03:23:22;;;;;;;37.60;23.40;;;;;;;29.13;43.42;101391.31;5083795;28;20047;-78
2022/08/19 03:25:50;;;;;;;36.90;22.65;;;;;;;29.01;44.29;101395.00;5063110;28;20082;-77
2022/08/19 03:28:16;;;;;;;35.50;22.52;;;;;;;29.36;43.08;101383.25;5067260;28;20085;-78
2022/08/19 03:30:54;;;;;;;32.25;20.40;;;;;;;29.28;43.11;101381.19;5059026;28;20028;-78
2022/08/19 03:33:19;;;;;;;26.85;17.58;;;;;;;29.61;41.62;101388.31;5055468;28;20560;-77
2022/08/19 03:35:45;;;;;;;30.98;18.65;;;;;;;29.35;42.38;101381.53;5074948;28;20103;-77
2022/08/19 03:38:10;;;;;;;26.17;18.05;;;;;;;29.40;42.05;101387.38;5059103;28;20028;-78
2022/08/19 03:40:36;;;;;;;34.75;19.02;;;;;;;29.15;42.52;101378.59;5068292;28;20392;-77
2022/08/19 03:43:02;;;;;;;27.17;17.75;;;;;;;29.51;41.69;101387.41;5064256;28;20056;-77
2022/08/19 03:45:28;;;;;;;30.00;18.73;;;;;;;29.44;41.75;101380.78;5042652;28;20039;-78
2022/08/19 03:47:53;;;;;;;28.67;18.35;;;;;;;28.79;43.60;101396.69;5043350;28;20421;-77
2022/08/19 03:50:19;;;;;;;29.75;18.40;;;;;;;28.68;43.21;101396.69;5036389;28;20059;-77
2022/08/19 03:52:51;;;;;;;28.58;19.45;;;;;;;28.76;43.46;101405.00;5038323;28;20516;-77
2022/08/19 03:55:18;;;;;;;34.63;19.83;;;;;;;29.23;42.33;101408.41;5052120;28;20031;-77
2022/08/19 03:57:45;;;;;;;33.47;20.17;;;;;;;28.99;42.64;101399.63;5047110;28;20037;-77
2022/08/19 04:00:11;;;;;;;32.63;20.67;;;;;;;29.14;41.93;101401.13;5057860;28;20078;-77
2022/08/19 04:02:37;;;;;;;34.40;21.38;;;;;;;29.09;42.15;101403.31;5056382;28;20392;-77
2022/08/19 04:05:02;;;;;;;37.15;22.05;;;;;;;28.73;43.35;101407.94;5038003;28;20052;-77
2022/08/19 04:07:28;;;;;;;34.35;22.33;;;;;;;28.73;43.43;101413.31;5034254;28;20038;-77
2022/08/19 04:09:53;;;;;;;35.65;22.25;;;;;;;28.81;42.91;101407.31;5048503;28;20044;-77
2022/08/19 04:12:20;;;;;;;36.90;23.35;;;;;;;28.57;43.74;101413.59;5052073;28;20029;-77
2022/08/19 04:14:46;;;;;;;35.70;22.98;;;;;;;28.81;42.98;101410.00;5033240;28;20032;-77
2022/08/19 04:17:14;;;;;;;39.05;23.15;;;;;;;28.68;43.48;101405.59;5037995;28;20039;-77
2022/08/19 04:19:40;;;;;;;41.30;24.00;;;;;;;28.51;43.92;101406.88;5033986;28;20021;-77
2022/08/19 04:22:06;;;;;;;39.45;23.88;;;;;;;28.56;43.82;101415.44;5040821;28;20029;-77
2022/08/19 04:24:34;;;;;;;43.15;25.75;;;;;;;28.70;44.03;101405.47;5037134;28;20028;-76
2022/08/19 04:27:01;;;;;;;49.17;26.02;;;;;;;27.91;45.65;101404.16;5055618;28;20032;-77
2022/08/19 04:29:26;;;;;;;49.58;26.65;;;;;;;28.65;43.99;101415.75;5051623;28;20448;-77
2022/08/19 04:31:54;;;;;;;55.55;28.67;;;;;;;28.40;45.09;101418.44;5050273;28;20086;-77
2022/08/19 04:34:22;;;;;;;58.28;30.60;;;;;;;28.18;45.34;101413.88;5038825;28;20021;-78
2022/08/19 04:36:48;;;;;;;59.03;29.95;;;;;;;28.56;44.90;101412.75;5055398;28;20025;-77
2022/08/19 04:39:16;;;;;;;63.72;32.50;;;;;;;28.76;43.86;101403.16;5044390;28;20035;-77
2022/08/19 04:44:30;;;;;;;75.95;37.03;;;;;;;26.95;49.82;101422.75;5055468;28;20036;-77
2022/08/19 04:46:55;;;;;;;84.07;38.63;;;;;;;27.58;48.35;101419.13;5049971;28;20031;-77
2022/08/19 04:49:22;;;;;;;85.93;38.47;;;;;;;27.71;48.18;101418.22;5039929;28;20131;-78
2022/08/19 04:51:49;;;;;;;84.65;38.67;;;;;;;27.06;50.84;101417.47;5073547;28;20036;-77
2022/08/19 04:54:16;;;;;;;88.55;38.03;;;;;;;27.20;50.81;101422.75;5045598;28;20481;-77
2022/08/19 04:56:42;;;;;;;83.03;38.33;;;;;;;27.16;51.05;101426.59;5037355;28;20027;-77
2022/08/19 04:59:08;;;;;;;84.65;38.88;;;;;;;27.67;50.29;101420.28;5038282;28;20024;-77
2022/08/19 05:01:34;;;;;;;79.43;36.72;;;;;;;28.54;47.31;101427.28;5056333;28;20029;-77
2022/08/19 05:04:01;;;;;;;84.40;39.47;;;;;;;27.77;50.39;101429.38;5052679;28;20021;-77
2022/08/19 05:06:28;;;;;;;78.55;36.35;;;;;;;28.60;47.63;101425.00;5040640;28;20024;-77
2022/08/19 05:08:54;;;;;;;84.60;37.75;;;;;;;27.51;50.75;101425.91;5037683;28;20020;-78
2022/08/19 05:11:26;;;;;;;88.93;37.05;;;;;;;28.02;49.51;101427.59;5055139;28;20381;-78
2022/08/19 05:13:52;;;;;;;81.13;37.47;;;;;;;27.83;49.89;101425.38;5067091;28;20478;-78
2022/08/19 05:16:19;;;;;;;83.80;37.28;;;;;;;28.24;48.47;101426.81;5038452;28;20875;-77
2022/08/19 05:24:14;;;;;;;81.05;36.63;;;;;;;27.02;52.89;101429.41;5054587;28;20036;-77
2022/08/19 05:26:42;;;;;;;77.47;35.38;;;;;;;27.90;49.98;101426.66;5054628;28;20025;-77
2022/08/19 05:29:08;;;;;;;74.07;32.67;;;;;;;28.75;47.57;101427.47;5037538;28;20047;-77
2022/08/19 05:31:35;;;;;;;71.88;33.42;;;;;;;29.17;46.44;101422.38;5067626;28;20024;-77
2022/08/19 05:34:01;;;;;;;71.13;33.47;;;;;;;29.83;44.66;101429.66;5041341;28;20025;-78
2022/08/19 05:36:29;;;;;;;73.18;34.67;;;;;;;28.52;48.33;101430.09;5036661;28;20320;-78
2022/08/19 05:38:55;;;;;;;64.38;32.35;;;;;;;29.55;45.50;101418.47;5036257;28;20514;-78
2022/08/19 05:41:30;;;;;;;68.18;34.03;;;;;;;29.28;45.25;101425.09;5037147;28;20025;-78
2022/08/19 05:43:57;;;;;;;63.08;31.02;;;;;;;29.96;44.95;101418.75;5040960;28;20530;-78
2022/08/19 05:46:24;;;;;;;83.55;33.83;;;;;;;29.74;44.67;101414.25;5065274;28;20029;-78
2022/08/19 05:48:49;;;;;;;70.53;35.50;;;;;;;29.17;46.43;101422.38;5047577;28;20473;-78
2022/08/19 05:51:15;;;;;;;70.40;32.95;;;;;;;29.51;45.44;101419.69;5058900;28;20025;-78
2022/08/19 05:53:42;;;;;;;65.13;32.25;;;;;;;30.39;43.72;101419.66;5037568;28;20388;-77
2022/08/19 05:56:10;;;;;;;71.85;33.03;;;;;;;28.01;49.61;101435.75;5041411;28;20169;-77
2022/08/19 05:58:36;;;;;;;68.43;32.40;;;;;;;28.70;48.54;101424.28;5073723;28;20400;-78
2022/08/19 06:01:05;;;;;;;67.47;32.95;;;;;;;29.49;46.47;101421.66;5037604;28;20032;-77
2022/08/19 06:03:37;;;;;;;73.68;33.00;;;;;;;29.22;47.64;101420.19;5036217;28;20116;-78
2022/08/19 06:06:03;;;;;;;65.38;32.63;;;;;;;29.45;46.49;101417.50;5053438;28;20167;-77
2022/08/19 06:08:29;;;;;;;58.47;31.60;;;;;;;30.48;43.57;101424.28;5043857;28;20126;-78
2022/08/19 06:10:55;;;;;;;63.03;31.58;;;;;;;29.42;45.75;101420.44;5049620;28;20111;-78
2022/08/19 06:13:22;;;;;;;58.25;29.55;;;;;;;30.35;44.80;101412.81;5057688;28;20033;-78
2022/08/19 06:15:48;;;;;;;61.80;30.85;;;;;;;29.92;45.20;101417.28;5036974;28;20439;-77
2022/08/19 06:18:15;;;;;;;61.05;30.70;;;;;;;30.38;43.68;101417.97;5052817;28;20101;-78
2022/08/19 06:20:41;;;;;;;66.63;31.55;;;;;;;29.79;45.12;101422.81;5055258;28;20032;-77
2022/08/19 06:23:07;;;;;;;63.05;31.63;;;;;;;29.52;45.81;101426.78;5052409;28;20040;-77
2022/08/19 06:25:32;;;;;;;54.20;31.33;;;;;;;30.34;44.24;101427.28;5042522;28;20040;-77
2022/08/19 06:27:58;;;;;;;62.10;30.55;;;;;;;30.50;43.95;101427.72;5051120;28;20502;-77
2022/08/19 06:30:23;;;;;;;53.10;30.55;;;;;;;30.79;44.53;101432.44;5055900;28;20032;-78
2022/08/19 06:32:48;;;;;;;60.90;29.83;;;;;;;29.18;46.70;101434.88;5037254;28;20025;-78
2022/08/19 06:35:14;;;;;;;49.38;28.48;;;;;;;30.66;44.08;101421.00;5053529;28;20017;-78
2022/08/19 06:37:40;;;;;;;68.20;32.05;;;;;;;29.39;46.37;101432.31;5053564;28;20103;-78
2022/08/19 06:40:08;;;;;;;50.85;29.17;;;;;;;31.44;42.13;101422.22;5061418;28;20028;-78
2022/08/19 06:42:34;;;;;;;49.83;26.95;;;;;;;30.92;43.01;101416.88;5061810;28;20114;-78
2022/08/19 06:45:02;;;;;;;46.08;28.23;;;;;;;30.50;43.77;101426.84;5056940;28;20461;-78
2022/08/19 06:47:29;;;;;;;50.63;26.25;;;;;;;30.43;43.23;101418.41;5033964;28;20120;-78
2022/08/19 06:50:03;;;;;;;50.05;26.55;;;;;;;30.72;43.76;101420.47;5065362;28;20460;-78
2022/08/19 06:52:39;;;;;;;47.67;26.67;;;;;;;28.81;49.02;101418.94;5057288;28;20067;-78
2022/08/19 06:55:05;;;;;;;45.95;25.95;;;;;;;30.48;44.90;101416.19;5047150;28;20066;-78
2022/08/19 06:57:32;;;;;;;43.15;25.38;;;;;;;31.21;42.99;101421.56;5060368;28;20124;-78
2022/08/19 06:59:59;;;;;;;40.35;24.60;;;;;;;31.23;43.00;101418.72;5050607;28;20390;-78
2022/08/19 07:02:26;;;;;;;43.42;24.60;;;;;;;30.45;43.84;101429.97;5070869;28;20438;-78
2022/08/19 07:04:52;;;;;;;40.70;23.27;;;;;;;29.89;45.04;101434.56;5039414;28;20485;-78
2022/08/19 07:07:19;;;;;;;42.53;24.00;;;;;;;29.66;45.96;101432.88;5053412;28;20031;-77
2022/08/19 07:09:45;;;;;;;44.05;23.48;;;;;;;30.83;44.17;101439.28;5034545;28;20069;-77
2022/08/19 07:12:13;;;;;;;38.97;22.85;;;;;;;30.38;45.06;101440.38;5044450;28;20031;-77
2022/08/19 07:14:39;;;;;;;35.67;22.77;;;;;;;31.44;43.23;101442.97;5036793;28;20029;-77
2022/08/19 07:17:07;;;;;;;43.38;22.48;;;;;;;31.07;43.38;101451.66;5061871;28;20037;-77
2022/08/19 07:19:33;;;;;;;40.63;23.10;;;;;;;30.04;45.79;101450.44;5049397;28;20037;-78
2022/08/19 07:22:00;;;;;;;34.88;21.45;;;;;;;30.32;46.03;101451.66;5038137;28;20166;-79
2022/08/19 07:24:27;;;;;;;41.17;23.77;;;;;;;30.37;45.36;101451.28;5045669;28;20032;-78
2022/08/19 07:26:56;;;;;;;37.13;23.35;;;;;;;31.53;42.95;101447.56;5037434;28;20025;-78
2022/08/19 07:29:23;;;;;;;42.63;23.60;;;;;;;32.63;41.52;101441.13;5068582;28;20060;-79
2022/08/19 07:31:52;;;;;;;35.85;20.85;;;;;;;35.09;36.03;101438.47;5047620;28;20032;-78
2022/08/19 07:34:18;;;;;;;36.00;20.58;;;;;;;35.23;34.91;101442.44;5042785;28;20017;-78
2022/08/19 07:36:44;;;;;;;27.65;19.10;;;;;;;32.27;39.70;101451.69;5046095;28;20085;-77
2022/08/19 07:39:23;;;;;;;34.25;20.30;;;;;;;33.24;39.36;101438.97;5038134;28;20040;-78
2022/08/19 07:41:50;;;;;;;30.33;20.35;;;;;;;33.82;37.55;101439.66;5057782;28;20040;-78
2022/08/19 07:44:15;;;;;;;31.65;19.42;;;;;;;33.92;36.86;101443.16;5074647;28;20114;-78
2022/08/19 07:46:44;;;;;;;28.75;18.40;;;;;;;36.86;32.96;101439.25;5090502;28;20118;-78
2022/08/19 07:49:16;;;;;;;30.60;19.30;;;;;;;34.59;35.40;101439.16;5060766;28;20115;-78
2022/08/19 07:51:41;;;;;;;;;;;;;;;35.63;34.98;101443.59;5068017;28;20032;-78
2022/08/19 07:54:07;;;;;;;32.05;18.40;;;;;;;35.70;34.69;101451.13;5064922;28;19960;-78
2022/08/19 07:56:32;;;;;;;31.90;18.45;;;;;;;33.33;38.61;101458.03;5057746;28;20461;-78
2022/08/19 07:58:57;;;;;;;29.13;20.00;;;;;;;32.39;39.44;101465.06;5053418;28;20478;-78
2022/08/19 08:01:29;;;;;;;29.48;18.67;;;;;;;33.60;37.67;101466.16;5083274;28;20502;-77
2022/08/19 08:09:29;;;;;;;31.60;19.95;;;;;;;32.77;38.85;101474.16;5074986;28;20039;-77
2022/08/19 08:11:59;;;;;;;31.45;21.20;;;;;;;32.00;40.88;101478.53;5058478;28;20036;-76
2022/08/19 08:14:32;;;;;;;38.13;21.42;;;;;;;32.22;40.28;101480.13;5064198;28;20047;-76
2022/08/19 08:16:58;;;;;;;43.70;23.58;;;;;;;30.50;43.98;101476.28;5074561;28;20115;-76
2022/08/19 08:19:26;;;;;;;38.53;22.90;;;;;;;32.43;40.36;101477.31;5048592;28;20017;-76
2022/08/19 08:21:55;;;;;;;40.75;23.55;;;;;;;31.96;41.31;101476.13;5060211;28;20127;-76
2022/08/19 08:24:21;;;;;;;35.55;23.77;;;;;;;31.40;42.32;101479.34;5069625;28;20388;-77
2022/08/19 08:26:46;;;;;;;33.55;22.50;;;;;;;31.68;41.32;101485.84;5053546;28;20036;-76
2022/08/19 08:29:13;;;;;;;37.53;22.27;;;;;;;33.12;39.28;101486.16;5071120;28;20032;-76
2022/08/19 08:31:40;;;;;;;32.60;21.08;;;;;;;32.72;39.18;101481.84;5071155;28;20039;-76
2022/08/19 08:34:06;;;;;;;35.38;21.70;;;;;;;33.56;38.46;101486.41;5061048;28;20042;-76
2022/08/19 08:36:33;;;;;;;44.10;21.40;;;;;;;33.05;39.08;101493.19;5055777;28;20368;-76
2022/08/19 08:38:59;;;;;;;40.17;22.48;;;;;;;31.54;42.23;101492.47;5071461;28;20537;-76
2022/08/19 08:41:27;;;;;;;32.85;21.05;;;;;;;33.19;39.12;101495.38;5080153;28;20057;-76
2022/08/19 08:43:54;;;;;;;30.95;21.98;;;;;;;30.85;42.96;101496.66;5044651;28;20056;-76
2022/08/19 08:46:41;;;;;;;32.88;20.70;;;;;;;33.13;38.83;101504.97;5046704;28;20378;-76
2022/08/19 08:49:29;;;;;;;36.78;20.50;;;;;;;31.00;43.12;101502.56;5038419;28;20040;-76
2022/08/19 08:52:03;;;;;;;35.13;19.70;;;;;;;31.90;40.86;101503.72;5049733;28;20695;-76
2022/08/19 08:54:43;;;;;;;30.83;19.08;;;;;;;31.13;42.17;101502.38;5050638;28;20025;-77
2022/08/19 08:57:23;;;;;;;33.80;19.02;;;;;;;32.42;40.75;101498.06;5034254;28;20059;-76
2022/08/19 08:59:53;;;;;;;30.40;18.88;;;;;;;33.08;38.81;101509.13;5033078;28;20417;-77
2022/08/19 09:02:19;;;;;;;30.40;17.27;;;;;;;33.29;38.10;101507.09;5035137;28;20488;-76
2022/08/19 09:04:45;;;;;;;33.67;18.30;;;;;;;34.39;36.89;101492.75;5033956;28;20032;-77
2022/08/19 09:07:30;;;;;;;30.88;16.70;;;;;;;35.88;34.43;101499.94;5040593;28;20025;-77
2022/08/19 09:10:09;;;;;;;25.25;15.27;;;;;;;35.48;33.97;101502.34;5061272;28;20021;-76
2022/08/19 09:12:54;;;;;;;21.65;14.43;;;;;;;37.63;31.61;101493.16;5073167;28;20491;-77
2022/08/19 09:15:34;;;;;;;26.42;14.25;;;;;;;36.37;32.55;101504.63;5036789;28;20056;-77
2022/08/19 09:18:02;;;;;;;21.30;13.23;;;;;;;34.44;35.86;101502.13;5047846;28;20116;-76
2022/08/19 09:20:28;;;;;;;17.35;13.15;;;;;;;37.63;31.05;101495.88;5036008;28;20036;-77
2022/08/19 09:22:53;;;;;;;25.92;13.55;;;;;;;37.39;31.75;101506.91;5041053;28;20031;-77
2022/08/19 09:25:22;;;;;;;19.77;12.43;;;;;;;39.63;28.60;101504.88;5046771;28;20017;-77
2022/08/19 09:27:48;;;;;;;26.63;13.45;;;;;;;39.75;28.34;101505.22;5050139;28;20127;-77
2022/08/19 09:30:24;;;;;;;20.60;11.52;;;;;;;37.99;30.13;101508.97;5056441;28;20021;-77
2022/08/19 09:32:52;;;;;;;15.00;11.90;;;;;;;37.44;30.90;101501.75;5057241;28;20025;-77
2022/08/19 09:35:21;;;;;;;18.75;12.05;;;;;;;38.71;29.40;101500.63;5070205;28;20027;-76
2022/08/19 09:37:48;;;;;;;18.23;11.10;;;;;;;39.13;29.16;101491.78;5046046;28;20029;-77
2022/08/19 09:40:14;;;;;;;19.20;11.18;;;;;;;37.90;30.10;101496.41;5053589;28;20096;-77
2022/08/19 09:42:39;;;;;;;15.68;10.65;;;;;;;38.62;29.38;101500.66;5049867;28;20127;-77
2022/08/19 09:45:05;;;;;;;17.25;11.18;;;;;;;36.77;31.73;101501.03;5057349;28;20025;-77
2022/08/19 09:47:32;;;;;;;19.65;12.40;;;;;;;36.21;32.80;101495.41;5055547;28;20024;-77
2022/08/19 09:49:57;;;;;;;19.48;11.65;;;;;;;36.66;32.46;101504.97;5060707;28;20043;-77
2022/08/19 09:52:23;;;;;;;20.05;10.30;;;;;;;35.75;32.80;101501.25;5070610;28;20483;-76
2022/08/19 09:54:52;;;;;;;17.15;10.32;;;;;;;34.72;34.90;101498.44;5067412;28;20060;-76
2022/08/19 09:57:17;;;;;;;17.25;11.27;;;;;;;33.81;36.65;101495.75;5073048;28;20028;-77
2022/08/19 09:59:44;;;;;;;17.38;10.80;;;;;;;34.18;36.77;101502.03;5072244;28;20100;-77
2022/08/19 10:02:10;;;;;;;18.05;11.55;;;;;;;34.06;36.78;101495.13;5059104;28;20024;-77
2022/08/19 10:07:19;;;;;;;17.67;10.77;;;;;;;33.75;37.79;101503.59;5086986;28;20110;-76
2022/08/19 10:09:45;;;;;;;21.17;11.65;;;;;;;31.74;41.20;101503.41;5057081;28;20481;-77
2022/08/19 10:12:10;;;;;;;15.60;10.77;;;;;;;33.76;37.55;101500.72;5071170;28;20030;-77
2022/08/19 10:14:37;;;;;;;19.27;11.32;;;;;;;32.44;40.38;101508.78;5059333;28;20024;-77
2022/08/19 10:17:03;;;;;;;18.45;11.80;;;;;;;32.47;41.35;101505.78;5070477;28;20028;-77
2022/08/19 10:19:35;;;;;;;19.33;12.18;;;;;;;33.17;40.48;101499.25;5062945;28;20028;-77
2022/08/19 10:22:04;;;;;;;19.83;12.57;;;;;;;34.20;38.41;101505.44;5058263;28;20102;-77
2022/08/19 10:24:30;;;;;;;19.05;11.68;;;;;;;33.78;39.33;101495.19;5055402;28;20035;-77
2022/08/19 10:26:56;;;;;;;18.85;9.93;;;;;;;33.43;39.39;101499.47;5055420;28;20051;-77
2022/08/19 10:29:21;;;;;;;22.60;10.93;;;;;;;34.12;39.34;101497.22;5055320;28;20403;-77
2022/08/19 10:31:47;;;;;;;16.33;8.70;;;;;;;33.29;40.19;101501.66;5078705;28;20024;-78
2022/08/19 10:34:13;;;;;;;14.73;8.93;;;;;;;33.73;39.86;101494.75;5055625;28;20020;-78
2022/08/19 10:36:38;;;;;;;13.82;9.05;;;;;;;34.99;37.49;101500.19;5071335;28;20103;-77
2022/08/19 10:39:07;;;;;;;10.30;7.55;;;;;;;33.34;39.02;101492.25;5061743;28;20086;-77
2022/08/19 10:41:35;;;;;;;11.70;7.13;;;;;;;32.68;40.75;101502.06;5054455;28;20062;-76
2022/08/19 10:44:04;;;;;;;15.75;6.80;;;;;;;32.63;40.41;101500.63;5079029;28;20134;-77
2022/08/19 10:46:32;;;;;;;11.50;6.50;;;;;;;33.02;39.34;101498.91;5074838;28;20023;-78
2022/08/19 10:48:59;;;;;;;9.60;6.38;;;;;;;34.74;36.85;101499.97;5077048;28;20051;-78
2022/08/19 10:54:09;;;;;;;8.30;5.18;;;;;;;35.98;35.10;101496.06;5075197;28;20052;-78
2022/08/19 10:56:53;;;;;;;8.38;6.00;;;;;;;35.04;35.88;101486.97;5066564;28;20020;-78
2022/08/19 10:59:27;;;;;;;10.20;5.15;;;;;;;35.60;35.05;101486.56;5073744;28;20502;-79
2022/08/19 11:01:53;;;;;;;13.35;4.93;;;;;;;34.92;35.28;101489.09;5060415;28;20028;-78
2022/08/19 11:04:20;;;;;;;8.70;4.40;;;;;;;34.42;35.97;101481.59;5092686;28;20487;-78
2022/08/19 11:06:47;;;;;;;10.38;4.43;;;;;;;34.32;36.58;101487.97;5064769;28;20047;-78
2022/08/19 11:09:15;;;;;;;8.48;3.97;;;;;;;35.77;34.61;101484.75;5058141;28;20169;-78
2022/08/19 11:11:41;;;;;;;9.13;3.72;;;;;;;34.74;34.82;101485.56;5055807;28;20028;-78
2022/08/19 11:14:14;;;;;;;7.85;3.47;;;;;;;35.30;34.49;101478.78;5068880;28;20031;-78
2022/08/19 11:16:42;;;;;;;4.82;3.47;;;;;;;34.95;33.89;101488.81;5073982;28;20024;-78
2022/08/19 11:19:09;;;;;;;6.38;3.20;;;;;;;34.47;35.67;101490.09;5074882;28;20395;-78
2022/08/19 11:21:40;;;;;;;8.25;3.42;;;;;;;33.97;35.78;101494.19;5076584;28;20038;-78
2022/08/19 11:24:12;;;;;;;8.73;3.90;;;;;;;33.91;36.31;101494.78;5054603;28;20032;-78
2022/08/19 11:26:38;;;;;;;9.00;3.88;;;;;;;32.81;37.80;101500.78;5062571;28;20035;-77
2022/08/19 11:29:05;;;;;;;7.43;3.45;;;;;;;34.03;36.37;101492.72;5073749;28;20379;-77
2022/08/19 11:31:33;;;;;;;4.85;3.20;;;;;;;33.05;37.80;101499.44;5067831;28;20107;-77
2022/08/19 11:34:03;;;;;;;4.90;3.22;;;;;;;32.16;40.41;101500.47;5086489;28;20081;-79